sensor_id;sensor_type;location;lat;lon;timestamp;P1;durP1;ratioP1;P2;durP2;ratioP2
21430;SDS011;10876;49.038;10.608;2023-02-28T00:01:32;2.60;;;2.40;;
21430;SDS011;10876;49.038;10.608;2023-02-28T00:04:00;4.75;;;2.38;;
21430;SDS011;10876;49.038;10.608;2023-02-28T00:06:29;6.30;;;2.65;;
21430;SDS011;10876;49.038;10.608;2023-02-28T00:08:56;4.25;;;2.30;;
21430;SDS011;10876;49.038;10.608;2023-02-28T00:11:24;3.72;;;2.25;;
21430;SDS011;10876;49.038;10.608;2023-02-28T00:13:51;4.95;;;2.53;;
21430;SDS011;10876;49.038;10.608;2023-02-28T00:16:19;4.88;;;2.95;;
21430;SDS011;10876;49.038;10.608;2023-02-28T00:18:47;4.85;;;2.67;;
21430;SDS011;10876;49.038;10.608;2023-02-28T00:21:15;7.57;;;2.88;;
21430;SDS011;10876;49.038;10.608;2023-02-28T00:23:44;6.13;;;3.08;;
21430;SDS011;10876;49.038;10.608;2023-02-28T00:26:11;3.92;;;2.90;;
21430;SDS011;10876;49.038;10.608;2023-02-28T00:28:38;4.68;;;3.08;;
21430;SDS011;10876;49.038;10.608;2023-02-28T00:31:05;3.72;;;2.55;;
21430;SDS011;10876;49.038;10.608;2023-02-28T00:33:32;6.65;;;2.63;;
21430;SDS011;10876;49.038;10.608;2023-02-28T00:36:03;4.32;;;2.90;;
21430;SDS011;10876;49.038;10.608;2023-02-28T00:38:31;5.57;;;2.97;;
21430;SDS011;10876;49.038;10.608;2023-02-28T00:40:59;5.22;;;3.10;;
21430;SDS011;10876;49.038;10.608;2023-02-28T00:43:30;9.40;;;2.92;;
21430;SDS011;10876;49.038;10.608;2023-02-28T00:45:58;5.65;;;2.85;;
21430;SDS011;10876;49.038;10.608;2023-02-28T00:48:25;5.35;;;2.90;;
21430;SDS011;10876;49.038;10.608;2023-02-28T00:50:52;4.70;;;2.88;;
21430;SDS011;10876;49.038;10.608;2023-02-28T00:53:19;3.92;;;2.55;;
21430;SDS011;10876;49.038;10.608;2023-02-28T00:55:47;5.22;;;2.80;;
21430;SDS011;10876;49.038;10.608;2023-02-28T00:58:16;6.05;;;2.92;;
21430;SDS011;10876;49.038;10.608;2023-02-28T01:00:43;4.10;;;3.00;;
21430;SDS011;10876;49.038;10.608;2023-02-28T01:03:14;4.10;;;2.70;;
21430;SDS011;10876;49.038;10.608;2023-02-28T01:05:42;4.13;;;2.92;;
21430;SDS011;10876;49.038;10.608;2023-02-28T01:08:08;5.95;;;3.35;;
21430;SDS011;10876;49.038;10.608;2023-02-28T01:10:35;5.60;;;3.03;;
21430;SDS011;10876;49.038;10.608;2023-02-28T01:13:03;4.10;;;2.65;;
21430;SDS011;10876;49.038;10.608;2023-02-28T01:15:32;4.60;;;2.70;;
21430;SDS011;10876;49.038;10.608;2023-02-28T01:17:59;5.22;;;2.53;;
21430;SDS011;10876;49.038;10.608;2023-02-28T01:20:26;6.65;;;2.95;;
21430;SDS011;10876;49.038;10.608;2023-02-28T01:22:53;4.28;;;2.60;;
21430;SDS011;10876;49.038;10.608;2023-02-28T01:25:20;6.13;;;3.08;;
21430;SDS011;10876;49.038;10.608;2023-02-28T01:27:47;4.03;;;2.55;;
21430;SDS011;10876;49.038;10.608;2023-02-28T01:30:14;6.03;;;2.95;;
21430;SDS011;10876;49.038;10.608;2023-02-28T01:32:42;4.95;;;2.90;;
21430;SDS011;10876;49.038;10.608;2023-02-28T01:35:09;4.38;;;3.00;;
21430;SDS011;10876;49.038;10.608;2023-02-28T01:37:36;5.25;;;2.80;;
21430;SDS011;10876;49.038;10.608;2023-02-28T01:40:03;7.05;;;2.80;;
21430;SDS011;10876;49.038;10.608;2023-02-28T01:42:31;7.22;;;3.08;;
21430;SDS011;10876;49.038;10.608;2023-02-28T01:45:00;4.32;;;3.05;;
21430;SDS011;10876;49.038;10.608;2023-02-28T01:47:30;5.10;;;2.63;;
21430;SDS011;10876;49.038;10.608;2023-02-28T01:50:02;6.38;;;2.70;;
21430;SDS011;10876;49.038;10.608;2023-02-28T01:52:33;4.35;;;2.65;;
21430;SDS011;10876;49.038;10.608;2023-02-28T01:55:01;4.57;;;2.83;;
21430;SDS011;10876;49.038;10.608;2023-02-28T01:57:32;5.45;;;3.35;;
21430;SDS011;10876;49.038;10.608;2023-02-28T02:00:04;8.20;;;3.25;;
21430;SDS011;10876;49.038;10.608;2023-02-28T02:02:34;4.45;;;2.75;;
21430;SDS011;10876;49.038;10.608;2023-02-28T02:05:05;6.00;;;3.17;;
21430;SDS011;10876;49.038;10.608;2023-02-28T02:07:34;5.25;;;2.90;;
21430;SDS011;10876;49.038;10.608;2023-02-28T02:10:04;8.98;;;2.92;;
21430;SDS011;10876;49.038;10.608;2023-02-28T02:12:50;7.25;;;3.60;;
21430;SDS011;10876;49.038;10.608;2023-02-28T02:15:32;4.45;;;2.60;;
21430;SDS011;10876;49.038;10.608;2023-02-28T02:18:03;4.25;;;2.97;;
21430;SDS011;10876;49.038;10.608;2023-02-28T02:24:03;4.20;;;2.97;;
21430;SDS011;10876;49.038;10.608;2023-02-28T02:26:50;7.07;;;2.88;;
21430;SDS011;10876;49.038;10.608;2023-02-28T02:32:47;7.65;;;3.70;;
21430;SDS011;10876;49.038;10.608;2023-02-28T02:35:36;4.53;;;2.85;;
21430;SDS011;10876;49.038;10.608;2023-02-28T02:38:08;4.70;;;2.75;;
21430;SDS011;10876;49.038;10.608;2023-02-28T02:40:43;5.03;;;2.83;;
21430;SDS011;10876;49.038;10.608;2023-02-28T02:43:17;4.70;;;2.97;;
21430;SDS011;10876;49.038;10.608;2023-02-28T02:45:49;6.70;;;3.00;;
21430;SDS011;10876;49.038;10.608;2023-02-28T02:48:25;6.53;;;3.53;;
21430;SDS011;10876;49.038;10.608;2023-02-28T02:50:57;4.15;;;2.75;;
21430;SDS011;10876;49.038;10.608;2023-02-28T02:53:27;3.40;;;2.58;;
21430;SDS011;10876;49.038;10.608;2023-02-28T02:55:58;9.68;;;3.20;;
21430;SDS011;10876;49.038;10.608;2023-02-28T02:58:28;5.18;;;3.03;;
21430;SDS011;10876;49.038;10.608;2023-02-28T03:01:01;4.95;;;3.58;;
21430;SDS011;10876;49.038;10.608;2023-02-28T03:03:30;4.00;;;2.65;;
21430;SDS011;10876;49.038;10.608;2023-02-28T03:06:00;6.88;;;2.83;;
21430;SDS011;10876;49.038;10.608;2023-02-28T03:08:29;5.63;;;2.75;;
21430;SDS011;10876;49.038;10.608;2023-02-28T03:11:00;5.32;;;2.55;;
21430;SDS011;10876;49.038;10.608;2023-02-28T03:13:42;6.22;;;3.17;;
21430;SDS011;10876;49.038;10.608;2023-02-28T03:16:23;6.65;;;3.13;;
21430;SDS011;10876;49.038;10.608;2023-02-28T03:19:02;7.05;;;3.40;;
21430;SDS011;10876;49.038;10.608;2023-02-28T03:21:40;4.75;;;3.20;;
21430;SDS011;10876;49.038;10.608;2023-02-28T03:24:14;6.28;;;3.25;;
21430;SDS011;10876;49.038;10.608;2023-02-28T03:26:47;9.73;;;3.88;;
21430;SDS011;10876;49.038;10.608;2023-02-28T03:29:20;4.70;;;2.83;;
21430;SDS011;10876;49.038;10.608;2023-02-28T03:31:56;4.78;;;2.85;;
21430;SDS011;10876;49.038;10.608;2023-02-28T03:34:26;5.43;;;3.58;;
21430;SDS011;10876;49.038;10.608;2023-02-28T03:36:59;3.80;;;2.80;;
21430;SDS011;10876;49.038;10.608;2023-02-28T03:39:30;6.95;;;3.67;;
21430;SDS011;10876;49.038;10.608;2023-02-28T03:42:04;7.07;;;3.63;;
21430;SDS011;10876;49.038;10.608;2023-02-28T03:44:35;7.90;;;3.72;;
21430;SDS011;10876;49.038;10.608;2023-02-28T03:47:08;6.00;;;3.22;;
21430;SDS011;10876;49.038;10.608;2023-02-28T03:49:40;7.57;;;3.72;;
21430;SDS011;10876;49.038;10.608;2023-02-28T03:52:12;6.82;;;3.08;;
21430;SDS011;10876;49.038;10.608;2023-02-28T03:54:40;7.85;;;3.25;;
21430;SDS011;10876;49.038;10.608;2023-02-28T03:57:12;7.43;;;3.60;;
21430;SDS011;10876;49.038;10.608;2023-02-28T03:59:47;7.18;;;4.13;;
21430;SDS011;10876;49.038;10.608;2023-02-28T04:02:19;7.65;;;3.25;;
21430;SDS011;10876;49.038;10.608;2023-02-28T04:04:46;7.13;;;3.80;;
21430;SDS011;10876;49.038;10.608;2023-02-28T04:07:15;6.32;;;3.47;;
21430;SDS011;10876;49.038;10.608;2023-02-28T04:09:42;6.32;;;3.38;;
21430;SDS011;10876;49.038;10.608;2023-02-28T04:12:09;7.28;;;3.83;;
21430;SDS011;10876;49.038;10.608;2023-02-28T04:14:36;5.80;;;3.30;;
21430;SDS011;10876;49.038;10.608;2023-02-28T04:17:03;9.35;;;4.13;;
21430;SDS011;10876;49.038;10.608;2023-02-28T04:19:30;8.23;;;3.22;;
21430;SDS011;10876;49.038;10.608;2023-02-28T04:21:57;4.82;;;3.50;;
21430;SDS011;10876;49.038;10.608;2023-02-28T04:24:26;7.72;;;4.05;;
21430;SDS011;10876;49.038;10.608;2023-02-28T04:26:54;7.40;;;3.28;;
21430;SDS011;10876;49.038;10.608;2023-02-28T04:29:23;5.75;;;3.75;;
21430;SDS011;10876;49.038;10.608;2023-02-28T04:31:51;6.95;;;3.58;;
21430;SDS011;10876;49.038;10.608;2023-02-28T04:34:18;7.18;;;3.22;;
21430;SDS011;10876;49.038;10.608;2023-02-28T04:36:46;5.75;;;3.63;;
21430;SDS011;10876;49.038;10.608;2023-02-28T04:39:14;7.97;;;3.90;;
21430;SDS011;10876;49.038;10.608;2023-02-28T04:41:45;6.25;;;3.65;;
21430;SDS011;10876;49.038;10.608;2023-02-28T04:44:12;6.40;;;3.17;;
21430;SDS011;10876;49.038;10.608;2023-02-28T04:46:39;8.10;;;3.65;;
21430;SDS011;10876;49.038;10.608;2023-02-28T04:49:06;8.95;;;4.38;;
21430;SDS011;10876;49.038;10.608;2023-02-28T04:51:34;7.15;;;3.95;;
21430;SDS011;10876;49.038;10.608;2023-02-28T04:54:01;5.15;;;3.72;;
21430;SDS011;10876;49.038;10.608;2023-02-28T04:56:28;10.20;;;4.18;;
21430;SDS011;10876;49.038;10.608;2023-02-28T04:58:59;8.20;;;3.50;;
21430;SDS011;10876;49.038;10.608;2023-02-28T05:01:26;6.85;;;3.63;;
21430;SDS011;10876;49.038;10.608;2023-02-28T05:03:55;6.70;;;3.55;;
21430;SDS011;10876;49.038;10.608;2023-02-28T05:06:24;4.78;;;3.50;;
21430;SDS011;10876;49.038;10.608;2023-02-28T05:08:52;8.23;;;3.85;;
21430;SDS011;10876;49.038;10.608;2023-02-28T05:11:20;6.63;;;4.35;;
21430;SDS011;10876;49.038;10.608;2023-02-28T05:13:49;9.60;;;4.03;;
21430;SDS011;10876;49.038;10.608;2023-02-28T05:16:18;10.32;;;4.30;;
21430;SDS011;10876;49.038;10.608;2023-02-28T05:18:46;9.32;;;3.92;;
21430;SDS011;10876;49.038;10.608;2023-02-28T05:23:56;7.95;;;4.30;;
21430;SDS011;10876;49.038;10.608;2023-02-28T05:26:24;8.30;;;4.05;;
21430;SDS011;10876;49.038;10.608;2023-02-28T05:28:52;3.22;;;2.28;;
21430;SDS011;10876;49.038;10.608;2023-02-28T05:31:21;8.20;;;3.97;;
21430;SDS011;10876;49.038;10.608;2023-02-28T05:33:48;6.88;;;3.63;;
21430;SDS011;10876;49.038;10.608;2023-02-28T05:36:16;8.75;;;4.55;;
21430;SDS011;10876;49.038;10.608;2023-02-28T05:38:45;8.05;;;3.60;;
21430;SDS011;10876;49.038;10.608;2023-02-28T05:41:12;9.02;;;3.83;;
21430;SDS011;10876;49.038;10.608;2023-02-28T05:43:39;9.90;;;4.68;;
21430;SDS011;10876;49.038;10.608;2023-02-28T05:46:07;5.88;;;3.55;;
21430;SDS011;10876;49.038;10.608;2023-02-28T05:48:36;12.15;;;5.22;;
21430;SDS011;10876;49.038;10.608;2023-02-28T05:51:04;9.95;;;4.38;;
21430;SDS011;10876;49.038;10.608;2023-02-28T05:53:32;7.72;;;4.90;;
21430;SDS011;10876;49.038;10.608;2023-02-28T05:56:00;6.72;;;4.00;;
21430;SDS011;10876;49.038;10.608;2023-02-28T05:58:27;8.13;;;4.75;;
21430;SDS011;10876;49.038;10.608;2023-02-28T06:00:56;9.95;;;4.50;;
21430;SDS011;10876;49.038;10.608;2023-02-28T06:03:23;7.55;;;4.75;;
21430;SDS011;10876;49.038;10.608;2023-02-28T06:05:51;7.47;;;4.05;;
21430;SDS011;10876;49.038;10.608;2023-02-28T06:08:18;11.10;;;5.07;;
21430;SDS011;10876;49.038;10.608;2023-02-28T06:10:45;9.98;;;4.30;;
21430;SDS011;10876;49.038;10.608;2023-02-28T06:13:12;7.25;;;3.55;;
21430;SDS011;10876;49.038;10.608;2023-02-28T06:15:39;9.65;;;4.53;;
21430;SDS011;10876;49.038;10.608;2023-02-28T06:18:06;8.52;;;4.43;;
21430;SDS011;10876;49.038;10.608;2023-02-28T06:20:33;7.50;;;4.43;;
21430;SDS011;10876;49.038;10.608;2023-02-28T06:23:02;10.02;;;5.35;;
21430;SDS011;10876;49.038;10.608;2023-02-28T06:25:30;13.07;;;5.00;;
21430;SDS011;10876;49.038;10.608;2023-02-28T06:27:57;11.65;;;4.88;;
21430;SDS011;10876;49.038;10.608;2023-02-28T06:30:24;10.52;;;4.90;;
21430;SDS011;10876;49.038;10.608;2023-02-28T06:32:55;10.18;;;5.13;;
21430;SDS011;10876;49.038;10.608;2023-02-28T06:35:22;8.15;;;4.45;;
21430;SDS011;10876;49.038;10.608;2023-02-28T06:37:48;8.40;;;5.10;;
21430;SDS011;10876;49.038;10.608;2023-02-28T06:40:17;9.60;;;5.45;;
21430;SDS011;10876;49.038;10.608;2023-02-28T06:42:44;8.20;;;4.18;;
21430;SDS011;10876;49.038;10.608;2023-02-28T06:45:13;7.85;;;4.68;;
21430;SDS011;10876;49.038;10.608;2023-02-28T06:47:44;10.18;;;4.97;;
21430;SDS011;10876;49.038;10.608;2023-02-28T06:50:11;9.10;;;4.40;;
21430;SDS011;10876;49.038;10.608;2023-02-28T06:52:39;10.02;;;4.75;;
21430;SDS011;10876;49.038;10.608;2023-02-28T06:55:06;9.38;;;4.68;;
21430;SDS011;10876;49.038;10.608;2023-02-28T06:57:36;8.73;;;4.63;;
21430;SDS011;10876;49.038;10.608;2023-02-28T07:00:15;11.15;;;4.97;;
21430;SDS011;10876;49.038;10.608;2023-02-28T07:02:51;9.50;;;4.43;;
21430;SDS011;10876;49.038;10.608;2023-02-28T07:05:21;9.70;;;5.03;;
21430;SDS011;10876;49.038;10.608;2023-02-28T07:07:48;11.93;;;5.78;;
21430;SDS011;10876;49.038;10.608;2023-02-28T07:10:18;12.85;;;5.20;;
21430;SDS011;10876;49.038;10.608;2023-02-28T07:12:47;11.70;;;4.85;;
21430;SDS011;10876;49.038;10.608;2023-02-28T07:15:14;11.60;;;4.90;;
21430;SDS011;10876;49.038;10.608;2023-02-28T07:17:41;11.15;;;5.30;;
21430;SDS011;10876;49.038;10.608;2023-02-28T07:20:08;9.05;;;5.03;;
21430;SDS011;10876;49.038;10.608;2023-02-28T07:22:36;11.38;;;5.03;;
21430;SDS011;10876;49.038;10.608;2023-02-28T07:25:04;13.43;;;5.57;;
21430;SDS011;10876;49.038;10.608;2023-02-28T07:27:31;9.10;;;5.07;;
21430;SDS011;10876;49.038;10.608;2023-02-28T07:30:00;10.20;;;4.97;;
21430;SDS011;10876;49.038;10.608;2023-02-28T07:32:28;11.65;;;5.32;;
21430;SDS011;10876;49.038;10.608;2023-02-28T07:34:59;10.65;;;5.70;;
21430;SDS011;10876;49.038;10.608;2023-02-28T07:37:26;10.10;;;5.60;;
21430;SDS011;10876;49.038;10.608;2023-02-28T07:39:56;11.18;;;5.93;;
21430;SDS011;10876;49.038;10.608;2023-02-28T07:42:23;13.45;;;6.38;;
21430;SDS011;10876;49.038;10.608;2023-02-28T07:44:50;8.57;;;5.72;;
21430;SDS011;10876;49.038;10.608;2023-02-28T07:47:20;11.00;;;5.32;;
21430;SDS011;10876;49.038;10.608;2023-02-28T07:49:47;12.02;;;5.65;;
21430;SDS011;10876;49.038;10.608;2023-02-28T07:52:14;11.68;;;5.32;;
21430;SDS011;10876;49.038;10.608;2023-02-28T07:54:41;9.82;;;5.50;;
21430;SDS011;10876;49.038;10.608;2023-02-28T07:57:08;11.98;;;5.88;;
21430;SDS011;10876;49.038;10.608;2023-02-28T07:59:35;9.80;;;5.25;;
21430;SDS011;10876;49.038;10.608;2023-02-28T08:02:02;11.82;;;5.82;;
21430;SDS011;10876;49.038;10.608;2023-02-28T08:04:33;13.57;;;4.93;;
21430;SDS011;10876;49.038;10.608;2023-02-28T08:07:01;11.23;;;6.03;;
21430;SDS011;10876;49.038;10.608;2023-02-28T08:09:28;11.85;;;5.93;;
21430;SDS011;10876;49.038;10.608;2023-02-28T08:11:55;5.78;;;3.60;;
21430;SDS011;10876;49.038;10.608;2023-02-28T08:14:22;10.32;;;5.47;;
21430;SDS011;10876;49.038;10.608;2023-02-28T08:16:49;10.18;;;5.30;;
21430;SDS011;10876;49.038;10.608;2023-02-28T08:19:16;7.97;;;4.53;;
21430;SDS011;10876;49.038;10.608;2023-02-28T08:21:44;12.07;;;5.97;;
21430;SDS011;10876;49.038;10.608;2023-02-28T08:24:11;12.07;;;5.93;;
21430;SDS011;10876;49.038;10.608;2023-02-28T08:26:39;11.05;;;5.60;;
21430;SDS011;10876;49.038;10.608;2023-02-28T08:29:06;10.63;;;5.10;;
21430;SDS011;10876;49.038;10.608;2023-02-28T08:31:34;12.63;;;5.30;;
21430;SDS011;10876;49.038;10.608;2023-02-28T08:34:04;9.93;;;5.60;;
21430;SDS011;10876;49.038;10.608;2023-02-28T08:36:31;8.98;;;5.10;;
21430;SDS011;10876;49.038;10.608;2023-02-28T08:39:00;11.98;;;5.70;;
21430;SDS011;10876;49.038;10.608;2023-02-28T08:41:27;8.63;;;4.85;;
21430;SDS011;10876;49.038;10.608;2023-02-28T08:43:54;13.57;;;6.10;;
21430;SDS011;10876;49.038;10.608;2023-02-28T08:46:21;7.80;;;3.92;;
21430;SDS011;10876;49.038;10.608;2023-02-28T08:48:51;10.75;;;5.97;;
21430;SDS011;10876;49.038;10.608;2023-02-28T08:51:19;10.85;;;5.50;;
21430;SDS011;10876;49.038;10.608;2023-02-28T08:53:51;10.77;;;5.95;;
21430;SDS011;10876;49.038;10.608;2023-02-28T08:56:21;11.02;;;5.43;;
21430;SDS011;10876;49.038;10.608;2023-02-28T08:58:49;9.43;;;4.95;;
21430;SDS011;10876;49.038;10.608;2023-02-28T09:01:17;11.15;;;5.70;;
21430;SDS011;10876;49.038;10.608;2023-02-28T09:03:45;10.93;;;5.57;;
21430;SDS011;10876;49.038;10.608;2023-02-28T09:06:13;8.38;;;4.93;;
21430;SDS011;10876;49.038;10.608;2023-02-28T09:08:42;8.27;;;5.05;;
21430;SDS011;10876;49.038;10.608;2023-02-28T09:11:09;11.98;;;5.38;;
21430;SDS011;10876;49.038;10.608;2023-02-28T09:13:38;12.75;;;5.32;;
21430;SDS011;10876;49.038;10.608;2023-02-28T09:16:07;10.10;;;5.13;;
21430;SDS011;10876;49.038;10.608;2023-02-28T09:18:35;8.68;;;4.78;;
21430;SDS011;10876;49.038;10.608;2023-02-28T09:21:03;11.20;;;5.05;;
21430;SDS011;10876;49.038;10.608;2023-02-28T09:23:31;8.02;;;5.15;;
21430;SDS011;10876;49.038;10.608;2023-02-28T09:25:58;10.25;;;5.00;;
21430;SDS011;10876;49.038;10.608;2023-02-28T09:28:25;6.18;;;3.80;;
21430;SDS011;10876;49.038;10.608;2023-02-28T09:30:54;9.40;;;4.88;;
21430;SDS011;10876;49.038;10.608;2023-02-28T09:33:22;9.80;;;5.63;;
21430;SDS011;10876;49.038;10.608;2023-02-28T09:35:50;10.23;;;5.60;;
21430;SDS011;10876;49.038;10.608;2023-02-28T09:38:26;2.90;;;1.77;;
21430;SDS011;10876;49.038;10.608;2023-02-28T09:40:57;7.18;;;4.97;;
21430;SDS011;10876;49.038;10.608;2023-02-28T09:43:26;4.68;;;2.58;;
21430;SDS011;10876;49.038;10.608;2023-02-28T09:45:59;14.05;;;5.93;;
21430;SDS011;10876;49.038;10.608;2023-02-28T09:48:32;8.73;;;4.60;;
21430;SDS011;10876;49.038;10.608;2023-02-28T09:51:05;11.63;;;5.55;;
21430;SDS011;10876;49.038;10.608;2023-02-28T09:53:42;6.00;;;3.63;;
21430;SDS011;10876;49.038;10.608;2023-02-28T09:56:10;8.80;;;4.80;;
21430;SDS011;10876;49.038;10.608;2023-02-28T09:58:43;8.82;;;5.10;;
21430;SDS011;10876;49.038;10.608;2023-02-28T10:01:19;7.88;;;4.05;;
21430;SDS011;10876;49.038;10.608;2023-02-28T10:03:55;1.95;;;1.75;;
21430;SDS011;10876;49.038;10.608;2023-02-28T10:06:26;3.70;;;2.28;;
21430;SDS011;10876;49.038;10.608;2023-02-28T10:08:58;6.38;;;3.83;;
21430;SDS011;10876;49.038;10.608;2023-02-28T10:11:28;8.02;;;4.50;;
21430;SDS011;10876;49.038;10.608;2023-02-28T10:13:59;9.68;;;5.15;;
21430;SDS011;10876;49.038;10.608;2023-02-28T10:16:32;9.25;;;4.88;;
21430;SDS011;10876;49.038;10.608;2023-02-28T10:19:03;8.85;;;3.90;;
21430;SDS011;10876;49.038;10.608;2023-02-28T10:21:36;8.52;;;4.40;;
21430;SDS011;10876;49.038;10.608;2023-02-28T10:24:11;8.13;;;4.63;;
21430;SDS011;10876;49.038;10.608;2023-02-28T10:26:46;9.85;;;4.63;;
21430;SDS011;10876;49.038;10.608;2023-02-28T10:29:15;9.45;;;4.90;;
21430;SDS011;10876;49.038;10.608;2023-02-28T10:31:43;10.45;;;5.10;;
21430;SDS011;10876;49.038;10.608;2023-02-28T10:34:11;9.63;;;5.28;;
21430;SDS011;10876;49.038;10.608;2023-02-28T10:36:41;13.48;;;5.38;;
21430;SDS011;10876;49.038;10.608;2023-02-28T10:39:35;10.93;;;5.25;;
21430;SDS011;10876;49.038;10.608;2023-02-28T10:42:18;5.78;;;3.35;;
21430;SDS011;10876;49.038;10.608;2023-02-28T10:44:47;7.95;;;5.28;;
21430;SDS011;10876;49.038;10.608;2023-02-28T10:47:16;3.97;;;2.50;;
21430;SDS011;10876;49.038;10.608;2023-02-28T10:49:46;4.95;;;2.70;;
21430;SDS011;10876;49.038;10.608;2023-02-28T10:52:14;6.82;;;3.63;;
21430;SDS011;10876;49.038;10.608;2023-02-28T10:55:13;9.38;;;5.72;;
21430;SDS011;10876;49.038;10.608;2023-02-28T10:57:42;11.18;;;4.72;;
21430;SDS011;10876;49.038;10.608;2023-02-28T11:00:14;10.93;;;4.97;;
21430;SDS011;10876;49.038;10.608;2023-02-28T11:02:46;5.30;;;3.30;;
21430;SDS011;10876;49.038;10.608;2023-02-28T11:05:23;6.85;;;4.18;;
21430;SDS011;10876;49.038;10.608;2023-02-28T11:07:52;4.43;;;2.45;;
21430;SDS011;10876;49.038;10.608;2023-02-28T11:10:21;6.55;;;3.35;;
21430;SDS011;10876;49.038;10.608;2023-02-28T11:12:54;11.60;;;6.32;;
21430;SDS011;10876;49.038;10.608;2023-02-28T11:15:23;9.43;;;5.20;;
21430;SDS011;10876;49.038;10.608;2023-02-28T11:17:56;8.63;;;5.18;;
21430;SDS011;10876;49.038;10.608;2023-02-28T11:20:26;10.75;;;5.25;;
21430;SDS011;10876;49.038;10.608;2023-02-28T11:22:54;3.30;;;2.63;;
21430;SDS011;10876;49.038;10.608;2023-02-28T11:25:24;14.05;;;5.55;;
21430;SDS011;10876;49.038;10.608;2023-02-28T11:27:54;6.35;;;3.67;;
21430;SDS011;10876;49.038;10.608;2023-02-28T11:30:28;10.27;;;6.38;;
21430;SDS011;10876;49.038;10.608;2023-02-28T11:33:00;9.52;;;5.25;;
21430;SDS011;10876;49.038;10.608;2023-02-28T11:35:28;6.32;;;3.95;;
21430;SDS011;10876;49.038;10.608;2023-02-28T11:38:00;12.23;;;5.88;;
21430;SDS011;10876;49.038;10.608;2023-02-28T11:40:31;10.52;;;5.88;;
21430;SDS011;10876;49.038;10.608;2023-02-28T11:43:10;8.80;;;5.00;;
21430;SDS011;10876;49.038;10.608;2023-02-28T11:45:55;6.15;;;3.53;;
21430;SDS011;10876;49.038;10.608;2023-02-28T11:48:35;12.20;;;5.60;;
21430;SDS011;10876;49.038;10.608;2023-02-28T11:51:12;6.45;;;3.75;;
21430;SDS011;10876;49.038;10.608;2023-02-28T11:53:50;8.70;;;4.88;;
21430;SDS011;10876;49.038;10.608;2023-02-28T11:56:27;10.65;;;5.93;;
21430;SDS011;10876;49.038;10.608;2023-02-28T11:59:02;13.85;;;6.20;;
21430;SDS011;10876;49.038;10.608;2023-02-28T12:01:45;11.02;;;5.97;;
21430;SDS011;10876;49.038;10.608;2023-02-28T12:04:28;9.35;;;5.60;;
21430;SDS011;10876;49.038;10.608;2023-02-28T12:07:13;11.75;;;6.28;;
21430;SDS011;10876;49.038;10.608;2023-02-28T12:09:51;11.90;;;6.03;;
21430;SDS011;10876;49.038;10.608;2023-02-28T12:12:29;10.20;;;6.07;;
21430;SDS011;10876;49.038;10.608;2023-02-28T12:15:05;10.32;;;6.65;;
21430;SDS011;10876;49.038;10.608;2023-02-28T12:18:16;8.93;;;4.43;;
21430;SDS011;10876;49.038;10.608;2023-02-28T12:20:56;9.52;;;5.15;;
21430;SDS011;10876;49.038;10.608;2023-02-28T12:23:38;10.90;;;4.88;;
21430;SDS011;10876;49.038;10.608;2023-02-28T12:26:15;10.68;;;5.68;;
21430;SDS011;10876;49.038;10.608;2023-02-28T12:28:50;12.27;;;5.70;;
21430;SDS011;10876;49.038;10.608;2023-02-28T12:31:20;6.97;;;4.38;;
21430;SDS011;10876;49.038;10.608;2023-02-28T12:33:53;10.43;;;5.35;;
21430;SDS011;10876;49.038;10.608;2023-02-28T12:36:28;9.52;;;5.50;;
21430;SDS011;10876;49.038;10.608;2023-02-28T12:39:00;10.02;;;5.68;;
21430;SDS011;10876;49.038;10.608;2023-02-28T12:41:34;6.75;;;4.25;;
21430;SDS011;10876;49.038;10.608;2023-02-28T12:44:08;8.80;;;4.65;;
21430;SDS011;10876;49.038;10.608;2023-02-28T12:46:41;9.73;;;4.93;;
21430;SDS011;10876;49.038;10.608;2023-02-28T12:49:12;16.63;;;6.65;;
21430;SDS011;10876;49.038;10.608;2023-02-28T12:51:43;11.82;;;6.43;;
21430;SDS011;10876;49.038;10.608;2023-02-28T12:54:14;12.18;;;6.20;;
21430;SDS011;10876;49.038;10.608;2023-02-28T12:56:48;9.13;;;5.05;;
21430;SDS011;10876;49.038;10.608;2023-02-28T12:59:23;10.60;;;4.22;;
21430;SDS011;10876;49.038;10.608;2023-02-28T13:02:00;12.52;;;6.55;;
21430;SDS011;10876;49.038;10.608;2023-02-28T13:07:31;10.45;;;6.20;;
21430;SDS011;10876;49.038;10.608;2023-02-28T13:10:24;9.00;;;5.10;;
21430;SDS011;10876;49.038;10.608;2023-02-28T13:13:05;10.45;;;5.80;;
21430;SDS011;10876;49.038;10.608;2023-02-28T13:15:36;11.85;;;6.18;;
21430;SDS011;10876;49.038;10.608;2023-02-28T13:18:20;12.63;;;6.57;;
21430;SDS011;10876;49.038;10.608;2023-02-28T13:20:56;9.20;;;6.15;;
21430;SDS011;10876;49.038;10.608;2023-02-28T13:26:23;9.32;;;5.22;;
21430;SDS011;10876;49.038;10.608;2023-02-28T13:29:30;9.88;;;4.72;;
21430;SDS011;10876;49.038;10.608;2023-02-28T13:35:13;9.82;;;5.35;;
21430;SDS011;10876;49.038;10.608;2023-02-28T13:44:12;9.85;;;4.63;;
21430;SDS011;10876;49.038;10.608;2023-02-28T13:49:44;12.18;;;6.78;;
21430;SDS011;10876;49.038;10.608;2023-02-28T13:52:12;9.60;;;5.88;;
21430;SDS011;10876;49.038;10.608;2023-02-28T13:55:00;8.48;;;4.95;;
21430;SDS011;10876;49.038;10.608;2023-02-28T13:57:51;12.00;;;6.10;;
21430;SDS011;10876;49.038;10.608;2023-02-28T14:00:39;9.73;;;6.35;;
21430;SDS011;10876;49.038;10.608;2023-02-28T14:03:28;14.52;;;6.40;;
21430;SDS011;10876;49.038;10.608;2023-02-28T14:06:15;12.95;;;6.88;;
21430;SDS011;10876;49.038;10.608;2023-02-28T14:08:50;11.70;;;5.70;;
21430;SDS011;10876;49.038;10.608;2023-02-28T14:11:28;9.27;;;4.70;;
21430;SDS011;10876;49.038;10.608;2023-02-28T14:14:01;3.78;;;2.70;;
21430;SDS011;10876;49.038;10.608;2023-02-28T14:16:35;10.63;;;5.82;;
21430;SDS011;10876;49.038;10.608;2023-02-28T14:19:09;11.00;;;6.07;;
21430;SDS011;10876;49.038;10.608;2023-02-28T14:21:43;10.35;;;5.72;;
21430;SDS011;10876;49.038;10.608;2023-02-28T14:27:36;7.25;;;3.85;;
21430;SDS011;10876;49.038;10.608;2023-02-28T14:33:19;10.98;;;5.72;;
21430;SDS011;10876;49.038;10.608;2023-02-28T14:36:01;7.97;;;4.07;;
21430;SDS011;10876;49.038;10.608;2023-02-28T14:38:33;8.63;;;5.15;;
21430;SDS011;10876;49.038;10.608;2023-02-28T14:41:11;11.38;;;5.68;;
21430;SDS011;10876;49.038;10.608;2023-02-28T14:43:48;11.15;;;6.00;;
21430;SDS011;10876;49.038;10.608;2023-02-28T14:46:17;11.60;;;6.32;;
21430;SDS011;10876;49.038;10.608;2023-02-28T14:48:47;11.10;;;6.07;;
21430;SDS011;10876;49.038;10.608;2023-02-28T14:51:20;9.65;;;5.43;;
21430;SDS011;10876;49.038;10.608;2023-02-28T14:53:49;14.77;;;5.43;;
21430;SDS011;10876;49.038;10.608;2023-02-28T14:56:22;11.70;;;6.22;;
21430;SDS011;10876;49.038;10.608;2023-02-28T14:58:56;11.07;;;5.82;;
21430;SDS011;10876;49.038;10.608;2023-02-28T15:01:24;6.63;;;3.67;;
21430;SDS011;10876;49.038;10.608;2023-02-28T15:03:58;11.32;;;5.60;;
21430;SDS011;10876;49.038;10.608;2023-02-28T15:06:28;10.25;;;5.65;;
21430;SDS011;10876;49.038;10.608;2023-02-28T15:09:09;13.48;;;6.38;;
21430;SDS011;10876;49.038;10.608;2023-02-28T15:11:45;11.60;;;6.18;;
21430;SDS011;10876;49.038;10.608;2023-02-28T15:14:19;12.13;;;6.13;;
21430;SDS011;10876;49.038;10.608;2023-02-28T15:16:49;12.18;;;5.65;;
21430;SDS011;10876;49.038;10.608;2023-02-28T15:19:23;11.02;;;6.07;;
21430;SDS011;10876;49.038;10.608;2023-02-28T15:21:55;11.80;;;5.50;;
21430;SDS011;10876;49.038;10.608;2023-02-28T15:24:29;10.10;;;5.80;;
21430;SDS011;10876;49.038;10.608;2023-02-28T15:27:03;12.07;;;5.80;;
21430;SDS011;10876;49.038;10.608;2023-02-28T15:29:44;10.88;;;6.35;;